Aérodrome :
LOGIN :

S'inscrire | Disclaimer

   EN    FR    IT 

 










Légende :    VFR   VFR Marginal   IFR   IFR Intensif   IFR Très Intensif
Visi : 
Plafond : 
>= 8 km
>= 3000ft
5 à 8 km
1000 à 3000 ft
1500m à 5 km
500 à 1000 ft
800 à 1500m
200 à 500 ft
< 800m
< 200 ft
Symboles :   Orages  Brouillard  Fortes neiges  Fortes précipitations  Vent > 20 kt
SIGMETs :   Divers  Orages  Givrage  Turbulence  Onde Orograph.  Cendres Volcan.







- Altitude de l'aérodrome : 74 ft
- Code IATA : MRS
- Voir les cartes d'approche


LFML - Marseille / Marignane

DERNIER METAR :
  • 241530Z AUTO 08020KT 9999 FEW013 BKN090 17/08 Q1015 TEMPO 12020G30KT

METARs EXPIRÉS :
  • 241500Z AUTO 09019G31KT CAVOK 18/09 Q1015 NOSIG
  • 241430Z AUTO 09016KT CAVOK 18/10 Q1015 TEMPO 12020G30KT
  • 241400Z AUTO 08015KT CAVOK 18/09 Q1014 TEMPO 12020G30KT
  • 241330Z AUTO 08017KT CAVOK 18/10 Q1014 TEMPO 12020G30KT
  • 241300Z AUTO 07018KT 9999 FEW052 SCT130 BKN190 18/10 Q1014 TEMPO 12020G30KT

TAF TAF LFML
Valide du 24 à 15h jusqu'au 25 à 21h UTC


241400Z 2415/2521 09015KT CAVOK
TEMPO 2415/2424 12020G30KT
PROB30
TEMPO 2415/2420 -RA NSC
BECMG 2503/2505 12020G30KT
BECMG 2507/2509 5000 RA BKN005 BKN010CB
TEMPO 2508/2511 15025G40KT 2000 TSRA
BECMG 2511/2512 VRB08KT FEW033
BECMG 2513/2515 10007KT BKN040
BECMG 2519/2521 SCT016 TX16/2415Z TN11/2511Z
ATIS : +33 4 42 31 15 15
Pas de NOTAMs connus pour ce terrain.
2 SIGMETs publiés pour la FIR Marseille (LFMM) :
 
Turbulence forte
LFMM SIGMET 3 VALID 241500/241900 LFPW
LFMM MARSEILLE FIR/UIR SEV TURB FCST WI N4300 E00815 - N4215 E00400 - N4315 E00345 - N4400 E00545 SFC/FL060 MOV W 15KT NC=
Turbulence forte
LFMM SIGMET 2 VALID 241100/241500 LFPW
LFMM MARSEILLE FIR/UIR SEV TURB FCST WI N4315 E00745 - N4215 E00515 - N4300 E00445 - N4345 E00715 SFC/FL060 MOV W 15KT NC=



MET'MAP, la Météo Aéronautique d'un coup d'oeil ! - Copyright ORBIFLY Décembre 2007 - Disclaimer

ORBIFLY MET'MAP TEAM :

Programmation & Développement : Alexandra Zaïnal
Conception & Développement : Baudouin d'Aumeries
Co-Programmation & Développement : Marc-Olivier Méhu
Soutien technique & logistique : Manuel Goepfert

Contact : metmap@orbifly.com




SOURCES & CREDITS :

   NOAA